Time;durP1;ratioP1;P1;durP2;ratioP2;P2;SDS_P1;SDS_P2;PMS_P1;PMS_P2;Temp;Humidity;BMP_temperature;BMP_pressure;BME280_temperature;BME280_humidity;BME280_pressure;Samples;Min_cycle;Max_cycle;Signal;HPM_P1;HPM_P2
2022/07/07 00:00:25;;;;;;;;;;;;;;;27.53;28.75;99386.13;4345267;33;33778;-91
2022/07/07 00:02:52;;;;;;;;;;;;;;;27.57;29.01;99390.34;4346278;33;33741;-92
2022/07/07 00:05:20;;;;;;;;;;;;;;;27.39;28.98;99384.22;4357468;32;33596;-91
2022/07/07 00:07:47;;;;;;;;;;;;;;;27.44;28.89;99381.31;4346447;33;33931;-92
2022/07/07 00:10:15;;;;;;;;;;;;;;;27.69;28.43;99395.97;4344519;33;34283;-91
2022/07/07 00:12:42;;;;;;;;;;;;;;;27.43;28.66;99390.25;4343902;33;35169;-92
2022/07/07 00:15:09;;;;;;;;;;;;;;;27.35;28.59;99389.78;4346387;33;33017;-91
2022/07/07 00:17:37;;;;;;;;;;;;;;;27.28;28.67;99391.06;4344830;33;34008;-92
2022/07/07 00:20:04;;;;;;;;;;;;;;;27.24;28.62;99386.81;4345990;33;33721;-91
2022/07/07 00:22:32;;;;;;;;;;;;;;;27.64;28.31;99389.09;4357276;32;34501;-91
2022/07/07 00:24:59;;;;;;;;;;;;;;;26.99;29.36;99385.41;4357033;32;32494;-92
2022/07/07 00:27:26;;;;;;;;;;;;;;;27.17;29.18;99383.63;4344986;33;35058;-91
2022/07/07 00:29:53;;;;;;;;;;;;;;;27.08;29.12;99381.38;4344491;33;35357;-92
2022/07/07 00:32:40;;;;;;;;;;;;;;;26.99;29.38;99380.06;4356865;32;33043;-91
2022/07/07 00:35:07;;;;;;;;;;;;;;;27.26;29.05;99374.28;4346355;33;33967;-91
2022/07/07 00:37:35;;;;;;;;;;;;;;;27.13;29.19;99377.59;4346122;33;33774;-91
2022/07/07 00:40:02;;;;;;;;;;;;;;;27.20;29.15;99379.94;4345859;33;34448;-92
2022/07/07 00:42:30;;;;;;;;;;;;;;;26.66;29.71;99375.50;4356984;32;34281;-92
2022/07/07 00:44:57;;;;;;;;;;;;;;;26.67;30.02;99373.75;4345804;33;33526;-91
2022/07/07 00:47:25;;;;;;;;;;;;;;;26.84;29.77;99379.06;4354155;32;34723;-91
2022/07/07 00:49:52;;;;;;;;;;;;;;;26.77;29.91;99382.09;4342271;33;34374;-91
2022/07/07 00:52:20;;;;;;;;;;;;;;;26.92;29.35;99383.97;4341974;33;34409;-92
2022/07/07 00:54:55;;;;;;;;;;;;;;;26.91;29.68;99379.59;4342130;33;33221;-91
2022/07/07 00:57:24;;;;;;;;;;;;;;;27.15;29.47;99383.69;4337167;33;34087;-91
2022/07/07 00:59:56;;;;;;;;;;;;;;;27.07;29.54;99388.53;4356488;32;33645;-92
2022/07/07 01:02:26;;;;;;;;;;;;;;;26.97;29.59;99381.09;4356966;32;35377;-92
2022/07/07 01:04:54;;;;;;;;;;;;;;;27.08;29.44;99390.22;4356823;32;33737;-92
2022/07/07 01:07:21;;;;;;;;;;;;;;;26.96;29.68;99390.87;4345500;33;33847;-92
2022/07/07 01:09:48;;;;;;;;;;;;;;;27.07;29.51;99391.19;4356720;32;33913;-91
2022/07/07 01:12:16;;;;;;;;;;;;;;;26.82;29.55;99391.59;4356567;32;34763;-92
2022/07/07 01:14:43;;;;;;;;;;;;;;;26.72;29.63;99387.66;4353702;32;33758;-92
2022/07/07 01:17:10;;;;;;;;;;;;;;;26.73;29.63;99389.38;4331068;33;33872;-92
2022/07/07 01:19:37;;;;;;;;;;;;;;;26.75;29.77;99384.84;4342125;33;32629;-92
2022/07/07 01:22:12;;;;;;;;;;;;;;;26.70;29.92;99378.88;4341859;33;33457;-91
2022/07/07 01:24:39;;;;;;;;;;;;;;;26.49;29.98;99386.13;4341782;32;34113;-92
2022/07/07 01:27:06;;;;;;;;;;;;;;;26.84;29.28;99392.34;4343974;33;34267;-92
2022/07/07 01:29:36;;;;;;;;;;;;;;;26.50;29.85;99393.16;4345644;33;34508;-91
2022/07/07 01:32:04;;;;;;;;;;;;;;;26.43;29.81;99386.38;4356322;32;34297;-91
2022/07/07 01:34:31;;;;;;;;;;;;;;;26.50;29.76;99382.53;4355628;32;34040;-92
2022/07/07 01:36:59;;;;;;;;;;;;;;;26.47;29.80;99388.00;4356540;32;33855;-92
2022/07/07 01:39:26;;;;;;;;;;;;;;;26.49;29.80;99382.63;4345439;33;34273;-91
2022/07/07 01:41:53;;;;;;;;;;;;;;;26.38;29.90;99383.09;4343963;33;33523;-92
2022/07/07 01:44:21;;;;;;;;;;;;;;;26.42;30.00;99390.84;4343816;33;32875;-92
2022/07/07 01:46:48;;;;;;;;;;;;;;;26.40;30.08;99382.09;4356432;32;33449;-92
2022/07/07 01:49:16;;;;;;;;;;;;;;;26.23;30.26;99390.03;4345480;33;33922;-91
2022/07/07 01:51:43;;;;;;;;;;;;;;;26.30;30.11;99387.94;4345438;33;33532;-91
2022/07/07 01:54:10;;;;;;;;;;;;;;;26.27;30.24;99391.59;4356160;32;33611;-92
2022/07/07 01:56:37;;;;;;;;;;;;;;;26.30;30.23;99379.97;4345577;33;33913;-92
2022/07/07 01:59:05;;;;;;;;;;;;;;;26.31;30.49;99387.84;4356361;32;32747;-92
2022/07/07 02:01:32;;;;;;;;;;;;;;;26.10;30.62;99392.41;4331702;33;34222;-91
2022/07/07 02:04:00;;;;;;;;;;;;;;;26.12;30.57;99392.31;4356036;32;33340;-92
2022/07/07 02:06:27;;;;;;;;;;;;;;;26.07;30.67;99394.34;4343870;33;33901;-91
2022/07/07 02:08:54;;;;;;;;;;;;;;;26.12;30.57;99393.19;4343928;33;32513;-91
2022/07/07 02:11:22;;;;;;;;;;;;;;;26.22;30.32;99384.78;4344766;33;34061;-92
2022/07/07 02:13:50;;;;;;;;;;;;;;;26.17;30.68;99377.00;4345023;33;33394;-92
2022/07/07 02:16:18;;;;;;;;;;;;;;;26.25;30.35;99382.81;4356021;32;34025;-92
2022/07/07 02:18:46;;;;;;;;;;;;;;;26.17;30.49;99377.00;4350551;32;34334;-92
2022/07/07 02:21:14;;;;;;;;;;;;;;;26.14;30.52;99385.16;4345483;33;34861;-96
2022/07/07 02:23:42;;;;;;;;;;;;;;;26.14;30.58;99387.81;4345221;33;34007;-91
2022/07/07 02:26:10;;;;;;;;;;;;;;;26.03;30.75;99383.00;4344644;33;34446;-91
2022/07/07 02:28:39;;;;;;;;;;;;;;;26.06;30.68;99385.50;4355824;32;34766;-90
2022/07/07 02:31:06;;;;;;;;;;;;;;;25.96;31.02;99392.19;4355685;32;35081;-90
2022/07/07 02:33:34;;;;;;;;;;;;;;;26.03;30.86;99393.63;4355433;32;33261;-94
2022/07/07 02:36:03;;;;;;;;;;;;;;;25.88;31.10;99402.31;4334691;32;33854;-94
2022/07/07 02:38:30;;;;;;;;;;;;;;;26.03;30.69;99396.28;4336217;32;34075;-95
2022/07/07 02:40:58;;;;;;;;;;;;;;;25.81;31.28;99400.88;4334872;32;35142;-95
2022/07/07 02:43:25;;;;;;;;;;;;;;;25.76;31.36;99400.16;4336456;33;33308;-94
2022/07/07 02:45:53;;;;;;;;;;;;;;;25.96;30.86;99397.50;4360737;32;33957;-95
2022/07/07 02:48:22;;;;;;;;;;;;;;;25.99;31.01;99401.78;4361425;32;34237;-95
2022/07/07 02:50:49;;;;;;;;;;;;;;;25.82;31.39;99403.44;4348879;32;34574;-95
2022/07/07 02:53:17;;;;;;;;;;;;;;;25.83;31.34;99399.00;4346411;32;34029;-95
2022/07/07 02:55:45;;;;;;;;;;;;;;;25.84;31.21;99400.72;4336310;32;34203;-95
2022/07/07 02:58:19;;;;;;;;;;;;;;;25.94;31.12;99409.97;4335160;33;34805;-95
2022/07/07 03:00:47;;;;;;;;;;;;;;;25.86;31.41;99402.38;4347847;32;34571;-96
2022/07/07 03:03:15;;;;;;;;;;;;;;;25.91;31.21;99405.69;4359929;32;33253;-95
2022/07/07 03:05:42;;;;;;;;;;;;;;;25.82;31.26;99405.25;4348729;32;34636;-94
2022/07/07 03:08:10;;;;;;;;;;;;;;;25.78;31.43;99399.22;4337216;32;35197;-93
2022/07/07 03:10:37;;;;;;;;;;;;;;;25.77;31.55;99397.47;4348934;32;34325;-94
2022/07/07 03:13:04;;;;;;;;;;;;;;;25.66;31.72;99405.91;4334914;33;33492;-95
2022/07/07 03:15:32;;;;;;;;;;;;;;;25.63;31.87;99400.72;4336416;32;34212;-94
2022/07/07 03:18:00;;;;;;;;;;;;;;;25.60;31.95;99400.88;4345864;33;33418;-94
2022/07/07 03:20:28;;;;;;;;;;;;;;;25.77;31.76;99401.91;4344849;33;35043;-94
2022/07/07 03:22:55;;;;;;;;;;;;;;;25.77;31.96;99399.25;4358305;32;34177;-96
2022/07/07 03:25:23;;;;;;;;;;;;;;;25.79;31.83;99394.75;4332673;33;33758;-96
2022/07/07 03:27:50;;;;;;;;;;;;;;;25.82;31.75;99390.16;4337287;33;34419;-95
2022/07/07 03:30:17;;;;;;;;;;;;;;;25.92;31.96;99395.94;4350917;33;34338;-95
2022/07/07 03:32:45;;;;;;;;;;;;;;;25.93;31.74;99393.19;4351372;33;34337;-94
2022/07/07 03:35:12;;;;;;;;;;;;;;;26.03;31.78;99396.28;4349514;32;34003;-94
2022/07/07 03:37:39;;;;;;;;;;;;;;;26.07;31.55;99399.66;4351050;32;35108;-94
2022/07/07 03:40:12;;;;;;;;;;;;;;;26.14;31.48;99399.31;4351936;32;34492;-94
2022/07/07 03:42:55;;;;;;;;;;;;;;;26.08;31.48;99396.91;4350418;32;33175;-94
2022/07/07 03:45:22;;;;;;;;;;;;;;;26.13;31.55;99399.34;4363492;32;33526;-94
2022/07/07 03:47:50;;;;;;;;;;;;;;;26.26;31.26;99404.97;4351147;32;33720;-94
2022/07/07 03:50:31;;;;;;;;;;;;;;;26.34;31.34;99406.31;4350067;32;34691;-94
2022/07/07 03:52:59;;;;;;;;;;;;;;;26.60;31.44;99406.87;4349549;32;33946;-93
2022/07/07 03:55:26;;;;;;;;;;;;;;;27.03;31.43;99397.59;4350130;32;33668;-94
2022/07/07 03:58:03;;;;;;;;;;;;;;;27.37;30.75;99406.53;4361876;32;35211;-94
2022/07/07 04:00:30;;;;;;;;;;;;;;;27.61;30.51;99399.03;4348406;33;33715;-93
2022/07/07 04:03:00;;;;;;;;;;;;;;;27.96;30.14;99399.84;4353569;32;33791;-94
2022/07/07 04:05:27;;;;;;;;;;;;;;;28.21;29.80;99394.00;4350285;32;33891;-95
2022/07/07 04:07:54;;;;;;;;;;;;;;;28.49;29.66;99388.00;4359775;32;33841;-95
2022/07/07 04:10:22;;;;;;;;;;;;;;;28.71;29.21;99394.75;4357776;32;34068;-95
2022/07/07 04:12:50;;;;;;;;;;;;;;;28.85;28.83;99386.81;4345810;33;33516;-95
2022/07/07 04:15:17;;;;;;;;;;;;;;;28.94;29.00;99388.91;4346524;33;34237;-95
2022/07/07 04:17:44;;;;;;;;;;;;;;;29.30;28.64;99383.22;4346158;33;34273;-95
2022/07/07 04:20:12;;;;;;;;;;;;;;;29.56;28.42;99386.97;4347208;33;33883;-95
2022/07/07 04:22:39;;;;;;;;;;;;;;;29.64;28.35;99385.66;4347649;33;33151;-94
2022/07/07 04:25:08;;;;;;;;;;;;;;;30.01;28.00;99382.38;4359996;32;33748;-95
2022/07/07 04:27:35;;;;;;;;;;;;;;;30.36;27.50;99379.28;4348820;33;34796;-95
2022/07/07 04:30:03;;;;;;;;;;;;;;;30.37;27.90;99380.97;4332429;33;34209;-95
2022/07/07 04:32:31;;;;;;;;;;;;;;;30.55;27.84;99378.94;4333563;33;33261;-95
2022/07/07 04:34:58;;;;;;;;;;;;;;;30.59;26.93;99371.56;4332329;33;33872;-95
2022/07/07 04:37:25;;;;;;;;;;;;;;;30.75;27.06;99377.63;4332051;33;34020;-96
2022/07/07 04:39:53;;;;;;;;;;;;;;;31.24;26.97;99379.62;4354715;32;35150;-96
2022/07/07 04:42:20;;;;;;;;;;;;;;;30.62;27.19;99376.72;4346198;33;33692;-96
2022/07/07 04:44:47;;;;;;;;;;;;;;;30.91;26.26;99381.00;4347036;33;34578;-96
2022/07/07 04:47:15;;;;;;;;;;;;;;;30.62;27.09;99382.06;4348509;33;34245;-96
2022/07/07 04:49:42;;;;;;;;;;;;;;;31.07;26.29;99371.91;4348305;33;34977;-95
2022/07/07 04:52:09;;;;;;;;;;;;;;;31.19;25.96;99387.12;4346905;33;33428;-96
2022/07/07 04:54:37;;;;;;;;;;;;;;;31.68;26.32;99381.91;4357365;32;34210;-95
2022/07/07 04:57:04;;;;;;;;;;;;;;;30.54;27.30;99385.25;4346534;33;35016;-95
2022/07/07 04:59:33;;;;;;;;;;;;;;;30.43;27.49;99379.75;4345639;33;34486;-96
2022/07/07 05:02:01;;;;;;;;;;;;;;;31.53;26.57;99379.47;4345853;33;34033;-95
2022/07/07 05:04:28;;;;;;;;;;;;;;;31.65;26.03;99379.44;4345870;33;34695;-96
2022/07/07 05:06:56;;;;;;;;;;;;;;;30.86;26.86;99385.78;4359942;32;34817;-96
2022/07/07 05:09:23;;;;;;;;;;;;;;;32.14;25.61;99386.69;4349490;33;34532;-94
2022/07/07 05:11:51;;;;;;;;;;;;;;;32.40;25.01;99387.47;4347522;33;33872;-96
2022/07/07 05:14:19;;;;;;;;;;;;;;;32.62;25.08;99389.44;4346705;33;34959;-96
2022/07/07 05:16:47;;;;;;;;;;;;;;;31.26;24.05;99383.06;4348319;33;34480;-96
2022/07/07 05:19:14;;;;;;;;;;;;;;;30.77;25.27;99379.25;4345995;33;35058;-94
2022/07/07 05:21:41;;;;;;;;;;;;;;;29.81;26.82;99388.12;4346503;33;34140;-94
2022/07/07 05:24:09;;;;;;;;;;;;;;;30.52;25.55;99385.31;4347198;33;34766;-94
2022/07/07 05:26:36;;;;;;;;;;;;;;;30.65;26.05;99390.75;4346815;33;34891;-95
2022/07/07 05:29:03;;;;;;;;;;;;;;;31.26;25.90;99383.94;4344318;33;34019;-94
2022/07/07 05:31:31;;;;;;;;;;;;;;;31.97;24.42;99373.63;4345839;33;34091;-94
2022/07/07 05:33:58;;;;;;;;;;;;;;;30.28;25.72;99378.94;4332429;33;33251;-93
2022/07/07 05:36:25;;;;;;;;;;;;;;;30.36;26.09;99376.59;4344721;33;35036;-93
2022/07/07 05:38:53;;;;;;;;;;;;;;;30.62;24.80;99384.72;4344275;33;34025;-93
2022/07/07 05:41:20;;;;;;;;;;;;;;;31.07;24.44;99390.66;4357107;32;33191;-95
2022/07/07 05:43:49;;;;;;;;;;;;;;;30.80;25.17;99391.56;4357507;32;34200;-96
2022/07/07 05:46:33;;;;;;;;;;;;;;;29.80;26.28;99395.28;4347179;33;33852;-94
2022/07/07 05:49:01;;;;;;;;;;;;;;;30.67;25.29;99401.34;4345624;33;34833;-96
2022/07/07 05:51:28;;;;;;;;;;;;;;;30.56;25.33;99395.84;4347318;33;33152;-96
2022/07/07 05:53:55;;;;;;;;;;;;;;;29.89;25.71;99396.53;4346949;33;33825;-94
2022/07/07 05:56:23;;;;;;;;;;;;;;;29.29;27.06;99394.88;4346624;33;35234;-94
2022/07/07 05:58:50;;;;;;;;;;;;;;;30.67;25.81;99396.84;4345061;33;33391;-95
2022/07/07 06:01:18;;;;;;;;;;;;;;;29.15;27.04;99393.97;4345904;33;33577;-94
2022/07/07 06:03:46;;;;;;;;;;;;;;;30.87;25.18;99389.31;4345075;33;34102;-95
2022/07/07 06:06:13;;;;;;;;;;;;;;;30.00;25.47;99388.69;4356075;32;34941;-94
2022/07/07 06:08:41;;;;;;;;;;;;;;;30.54;25.54;99395.94;4345590;33;34879;-94
2022/07/07 06:11:08;;;;;;;;;;;;;;;29.56;26.27;99389.63;4344747;33;34282;-96
2022/07/07 06:13:35;;;;;;;;;;;;;;;30.82;25.25;99392.31;4358253;32;34796;-95
2022/07/07 06:16:03;;;;;;;;;;;;;;;30.33;25.52;99394.66;4347419;33;35165;-95
2022/07/07 06:18:33;;;;;;;;;;;;;;;30.51;25.37;99390.78;4347071;33;34668;-96
2022/07/07 06:21:00;;;;;;;;;;;;;;;30.56;25.30;99396.69;4355334;32;33785;-96
2022/07/07 06:23:27;;;;;;;;;;;;;;;30.34;26.06;99383.84;4346302;33;34099;-94
2022/07/07 06:25:55;;;;;;;;;;;;;;;30.19;25.02;99395.53;4345530;33;35120;-92
2022/07/07 06:28:23;;;;;;;;;;;;;;;30.54;25.17;99391.44;4346790;33;34419;-96
2022/07/07 06:30:53;;;;;;;;;;;;;;;31.53;24.31;99392.88;4345527;33;34334;-93
2022/07/07 06:33:20;;;;;;;;;;;;;;;32.15;23.09;99392.91;4347774;33;33911;-96
2022/07/07 06:35:47;;;;;;;;;;;;;;;31.71;23.67;99388.88;4358955;32;33992;-95
2022/07/07 06:38:15;;;;;;;;;;;;;;;31.90;24.11;99397.38;4357803;32;35159;-93
2022/07/07 06:40:42;;;;;;;;;;;;;;;30.97;24.22;99393.94;4358208;32;33363;-93
2022/07/07 06:43:16;;;;;;;;;;;;;;;30.19;25.72;99395.53;4347171;33;34494;-95
2022/07/07 06:45:44;;;;;;;;;;;;;;;31.11;25.02;99397.53;4347250;33;34201;-93
2022/07/07 06:48:11;;;;;;;;;;;;;;;29.79;26.17;99395.41;4357812;32;34284;-93
2022/07/07 06:50:38;;;;;;;;;;;;;;;31.61;24.79;99390.50;4347042;33;34182;-95
2022/07/07 06:53:06;;;;;;;;;;;;;;;31.58;24.59;99388.03;4349838;33;34032;-95
2022/07/07 06:55:33;;;;;;;;;;;;;;;31.55;23.81;99386.41;4347318;33;34344;-95
2022/07/07 06:58:02;;;;;;;;;;;;;;;31.39;24.82;99386.63;4360055;32;35009;-94
2022/07/07 07:00:30;;;;;;;;;;;;;;;31.26;25.09;99394.66;4349271;33;34350;-96
2022/07/07 07:02:57;;;;;;;;;;;;;;;30.25;26.15;99395.16;4347276;32;33141;-95
2022/07/07 07:05:26;;;;;;;;;;;;;;;31.12;25.07;99385.84;4346258;33;34467;-96
2022/07/07 07:07:53;;;;;;;;;;;;;;;31.67;23.86;99388.25;4335419;33;33681;-93
2022/07/07 07:10:49;;;;;;;;;;;;;;;31.50;24.87;99399.28;4347322;33;33966;-95
2022/07/07 07:13:35;;;;;;;;;;;;;;;30.93;24.65;99388.91;4347251;33;34564;-96
2022/07/07 07:16:02;;;;;;;;;;;;;;;30.60;25.13;99394.66;4348475;33;34632;-96
2022/07/07 07:18:30;;;;;;;;;;;;;;;29.19;27.03;99392.84;4359246;32;33962;-95
2022/07/07 07:20:57;;;;;;;;;;;;;;;29.88;26.37;99392.13;4348941;33;33555;-94
2022/07/07 07:23:24;;;;;;;;;;;;;;;30.87;25.17;99390.16;4346166;33;33920;-93
2022/07/07 07:25:52;;;;;;;;;;;;;;;30.49;25.66;99388.19;4348003;33;33944;-94
2022/07/07 07:28:20;;;;;;;;;;;;;;;31.40;25.11;99380.31;4354892;32;34207;-95
2022/07/07 07:30:47;;;;;;;;;;;;;;;32.10;24.55;99384.34;4343804;33;32584;-95
2022/07/07 07:33:14;;;;;;;;;;;;;;;31.33;25.40;99371.00;4343504;33;34070;-92
2022/07/07 07:35:42;;;;;;;;;;;;;;;28.99;27.93;99370.88;4346854;33;34846;-94
2022/07/07 07:38:09;;;;;;;;;;;;;;;27.44;30.02;99380.47;4348644;33;34059;-94
2022/07/07 07:40:37;;;;;;;;;;;;;;;29.91;27.28;99381.25;4361816;32;33283;-94
2022/07/07 07:43:04;;;;;;;;;;;;;;;31.18;25.52;99380.06;4348065;33;33795;-94
2022/07/07 07:45:31;;;;;;;;;;;;;;;32.02;24.84;99376.00;4348902;32;35065;-94
2022/07/07 07:48:01;;;;;;;;;;;;;;;31.13;25.53;99377.69;4357764;32;35064;-96
2022/07/07 07:50:29;;;;;;;;;;;;;;;32.22;25.50;99378.91;4358477;32;33808;-95
2022/07/07 07:52:57;;;;;;;;;;;;;;;32.38;24.71;99378.63;4345591;33;34023;-93
2022/07/07 07:55:24;;;;;;;;;;;;;;;31.76;24.83;99376.00;4361427;32;32383;-92
2022/07/07 07:57:52;;;;;;;;;;;;;;;32.04;24.19;99374.03;4349741;33;33934;-94
2022/07/07 08:00:20;;;;;;;;;;;;;;;32.43;23.36;99379.22;4361798;32;33793;-92
2022/07/07 08:02:48;;;;;;;;;;;;;;;32.80;22.22;99372.88;4353763;32;32258;-91
2022/07/07 08:05:16;;;;;;;;;;;;;;;32.40;23.27;99376.75;4347471;33;34109;-92
2022/07/07 08:07:43;;;;;;;;;;;;;;;32.50;22.79;99376.03;4355828;32;33698;-91
2022/07/07 08:10:11;;;;;;;;;;;;;;;31.91;24.24;99385.66;4348709;32;34292;-91
2022/07/07 08:12:38;;;;;;;;;;;;;;;31.29;25.06;99382.84;4371756;32;33889;-92
2022/07/07 08:15:06;;;;;;;;;;;;;;;30.94;25.67;99375.41;4371919;32;34445;-89
2022/07/07 08:17:34;;;;;;;;;;;;;;;31.57;24.83;99378.28;4361890;32;34113;-90
2022/07/07 08:20:01;;;;;;;;;;;;;;;31.85;24.00;99375.37;4364186;32;33406;-89
2022/07/07 08:22:28;;;;;;;;;;;;;;;32.17;23.99;99375.72;4361897;32;34874;-89
2022/07/07 08:24:55;;;;;;;;;;;;;;;32.62;23.15;99375.16;4348511;33;34345;-91
2022/07/07 08:27:22;;;;;;;;;;;;;;;30.74;24.08;99370.56;4356260;32;35146;-89
2022/07/07 08:29:49;;;;;;;;;;;;;;;29.47;26.15;99379.53;4344812;33;33644;-92
2022/07/07 08:32:17;;;;;;;;;;;;;;;31.08;24.35;99365.59;4345500;33;34290;-92
2022/07/07 08:34:44;;;;;;;;;;;;;;;31.17;24.30;99379.19;4356272;32;34229;-92
2022/07/07 08:37:11;;;;;;;;;;;;;;;29.72;25.83;99378.03;4345400;33;34611;-90
2022/07/07 08:39:39;;;;;;;;;;;;;;;29.18;26.43;99378.63;4343506;33;33714;-91
2022/07/07 08:42:06;;;;;;;;;;;;;;;29.90;26.14;99368.84;4345200;33;34673;-90
2022/07/07 08:44:33;;;;;;;;;;;;;;;30.69;25.35;99370.84;4346200;33;34161;-90
2022/07/07 08:47:00;;;;;;;;;;;;;;;30.24;25.68;99372.06;4346155;33;34150;-88
2022/07/07 08:49:28;;;;;;;;;;;;;;;31.27;25.52;99368.72;4346132;33;34097;-91
2022/07/07 08:51:56;;;;;;;;;;;;;;;31.48;24.43;99374.41;4356074;32;33938;-92
2022/07/07 08:54:24;;;;;;;;;;;;;;;31.72;23.73;99364.66;4346257;33;34537;-91
2022/07/07 08:56:51;;;;;;;;;;;;;;;30.17;25.14;99373.41;4347280;33;34585;-88
2022/07/07 08:59:18;;;;;;;;;;;;;;;30.44;24.76;99360.03;4345880;33;34196;-88
2022/07/07 09:01:52;;;;;;;;;;;;;;;31.24;24.36;99361.72;4345437;33;34414;-87
2022/07/07 09:04:20;;;;;;;;;;;;;;;31.66;24.27;99365.06;4345468;33;33852;-88
2022/07/07 09:06:51;;;;;;;;;;;;;;;30.96;24.07;99359.25;4356222;32;34485;-89
2022/07/07 09:09:26;;;;;;;;;;;;;;;31.26;24.49;99357.12;4356723;32;34394;-88
2022/07/07 09:12:00;;;;;;;;;;;;;;;31.60;24.37;99360.16;4345774;33;34152;-88
2022/07/07 09:14:35;;;;;;;;;;;;;;;31.41;24.22;99351.72;4345562;33;34535;-88
2022/07/07 09:17:03;;;;;;;;;;;;;;;31.87;23.49;99351.16;4345600;33;34763;-91
2022/07/07 09:19:30;;;;;;;;;;;;;;;32.34;23.71;99357.53;4356812;32;33661;-87
2022/07/07 09:21:58;;;;;;;;;;;;;;;31.61;23.74;99356.50;4345854;33;33613;-90
2022/07/07 09:24:25;;;;;;;;;;;;;;;31.88;23.58;99356.38;4345624;33;34235;-88
2022/07/07 09:26:53;;;;;;;;;;;;;;;32.32;22.68;99356.78;4345690;33;34484;-89
2022/07/07 09:29:21;;;;;;;;;;;;;;;32.37;23.03;99360.84;4345911;33;33353;-89
2022/07/07 09:32:02;;;;;;;;;;;;;;;31.79;23.61;99358.84;4357140;32;33980;-89
2022/07/07 09:34:30;;;;;;;;;;;;;;;31.53;23.32;99366.06;4356361;32;35231;-88
2022/07/07 09:39:51;;;;;;;;;;;;;;;31.31;23.72;99359.53;4345015;33;33666;-88
2022/07/07 09:42:37;;;;;;;;;;;;;;;31.39;24.08;99362.53;4345507;33;34362;-89
2022/07/07 09:45:09;;;;;;;;;;;;;;;31.37;23.53;99358.25;4345383;33;34462;-90
2022/07/07 09:47:37;;;;;;;;;;;;;;;31.32;23.88;99361.22;4345279;33;35541;-90
2022/07/07 09:50:08;;;;;;;;;;;;;;;31.34;22.89;99364.69;4344432;33;33378;-90
2022/07/07 09:52:35;;;;;;;;;;;;;;;31.38;23.24;99358.13;4345333;33;34977;-89
2022/07/07 09:55:03;;;;;;;;;;;;;;;30.66;24.18;99356.81;4345068;33;34408;-88
2022/07/07 09:57:31;;;;;;;;;;;;;;;31.08;24.43;99368.28;4345408;33;34197;-89
2022/07/07 09:59:58;;;;;;;;;;;;;;;30.64;23.45;99358.72;4345120;33;34161;-90
2022/07/07 10:02:37;;;;;;;;;;;;;;;30.54;24.23;99348.62;4345714;33;33880;-90
2022/07/07 10:05:05;;;;;;;;;;;;;;;30.70;24.37;99355.63;4343842;33;33717;-88
2022/07/07 10:07:33;;;;;;;;;;;;;;;31.16;22.30;99347.16;4355894;32;34756;-86
2022/07/07 10:10:01;;;;;;;;;;;;;;;31.33;23.58;99341.53;4345045;33;33605;-87
2022/07/07 10:12:29;;;;;;;;;;;;;;;30.96;24.27;99346.72;4344711;33;34323;-88
2022/07/07 10:14:56;;;;;;;;;;;;;;;31.59;22.53;99350.38;4344668;33;34499;-89
2022/07/07 10:17:23;;;;;;;;;;;;;;;31.57;22.10;99340.75;4355803;32;33924;-90
2022/07/07 10:19:50;;;;;;;;;;;;;;;31.97;20.87;99336.97;4355636;32;33683;-88
2022/07/07 10:22:21;;;;;;;;;;;;;;;31.33;21.75;99341.53;4355745;32;34948;-86
2022/07/07 10:24:48;;;;;;;;;;;;;;;30.96;22.58;99343.19;4354921;32;35180;-85
2022/07/07 10:27:15;;;;;;;;;;;;;;;31.45;21.94;99348.72;4355306;32;35279;-85
2022/07/07 10:29:46;;;;;;;;;;;;;;;30.31;23.55;99341.28;4343674;33;34506;-87
2022/07/07 10:32:15;;;;;;;;;;;;;;;31.02;23.39;99343.59;4342418;33;33997;-84
2022/07/07 10:34:52;;;;;;;;;;;;;;;30.72;24.03;99340.31;4346275;32;35000;-89
2022/07/07 10:37:20;;;;;;;;;;;;;;;31.48;22.95;99337.78;4344592;33;34194;-90
2022/07/07 10:39:53;;;;;;;;;;;;;;;31.35;23.54;99334.22;4344123;33;33714;-90
2022/07/07 10:42:30;;;;;;;;;;;;;;;30.79;23.72;99330.94;4344784;33;34006;-91
2022/07/07 10:44:58;;;;;;;;;;;;;;;31.34;23.49;99337.87;4364827;32;35270;-89
2022/07/07 10:47:25;;;;;;;;;;;;;;;30.45;24.91;99346.56;4370392;32;35262;-87
2022/07/07 10:49:53;;;;;;;;;;;;;;;30.74;24.60;99339.28;4359688;32;33039;-86
2022/07/07 10:52:21;;;;;;;;;;;;;;;30.80;24.66;99338.03;4359525;32;34401;-92
2022/07/07 10:54:49;;;;;;;;;;;;;;;30.90;25.62;99333.75;4355559;32;35145;-91
2022/07/07 10:57:16;;;;;;;;;;;;;;;31.29;24.29;99334.62;4320113;33;800235;-90
2022/07/07 10:59:56;;;;;;;;;;;;;;;30.70;25.78;99320.84;4346439;33;33315;-89
2022/07/07 11:02:29;;;;;;;;;;;;;;;30.85;25.04;99335.91;4346937;33;33974;-94
2022/07/07 11:04:57;;;;;;;;;;;;;;;31.11;24.31;99325.22;4346739;33;35201;-91
2022/07/07 11:07:25;;;;;;;;;;;;;;;31.92;23.69;99328.38;4358710;32;34479;-92
2022/07/07 11:09:57;;;;;;;;;;;;;;;31.65;23.74;99317.78;4347210;33;34293;-93
2022/07/07 11:12:38;;;;;;;;;;;;;;;31.57;23.99;99316.66;4347273;33;33618;-91
2022/07/07 11:15:14;;;;;;;;;;;;;;;31.72;23.69;99313.72;4347860;33;34548;-93
2022/07/07 11:17:45;;;;;;;;;;;;;;;32.09;22.84;99320.94;4355221;32;34006;-92
2022/07/07 11:20:15;;;;;;;;;;;;;;;31.63;23.81;99316.19;4345250;32;34401;-88
2022/07/07 11:22:52;;;;;;;;;;;;;;;31.87;23.48;99325.19;4349005;32;34944;-92
2022/07/07 11:25:20;;;;;;;;;;;;;;;31.71;23.25;99319.19;4345216;33;34008;-92
2022/07/07 11:27:51;;;;;;;;;;;;;;;31.51;23.29;99312.56;4357550;32;35106;-89
2022/07/07 11:30:22;;;;;;;;;;;;;;;30.80;24.67;99305.91;4354099;32;33570;-89
2022/07/07 11:32:50;;;;;;;;;;;;;;;30.63;24.46;99299.00;4331826;33;34118;-87
2022/07/07 11:35:17;;;;;;;;;;;;;;;31.73;23.73;99303.84;4358274;32;34196;-86
2022/07/07 11:37:45;;;;;;;;;;;;;;;31.56;24.08;99304.19;4372025;32;35364;-87
2022/07/07 11:40:19;;;;;;;;;;;;;;;31.72;24.50;99300.31;4352721;32;33781;-86
2022/07/07 11:42:46;;;;;;;;;;;;;;;31.20;24.65;99293.28;4351831;32;34215;-88
2022/07/07 11:45:22;;;;;;;;;;;;;;;31.77;24.33;99296.44;4345827;33;34006;-88
2022/07/07 11:47:50;;;;;;;;;;;;;;;31.42;24.29;99289.12;4344381;33;35235;-88
2022/07/07 11:50:17;;;;;;;;;;;;;;;30.62;25.04;99291.06;4345499;33;33397;-88
2022/07/07 11:52:47;;;;;;;;;;;;;;;30.83;25.04;99275.38;4345867;33;34257;-92
2022/07/07 11:55:17;;;;;;;;;;;;;;;31.64;24.97;99285.75;4346433;33;35199;-90
2022/07/07 11:57:53;;;;;;;;;;;;;;;31.61;24.51;99270.75;4346388;33;34291;-87
2022/07/07 12:00:27;;;;;;;;;;;;;;;31.62;24.78;99275.13;4345516;33;34241;-85
2022/07/07 12:02:56;;;;;;;;;;;;;;;31.61;25.15;99280.62;4345569;33;35018;-88
2022/07/07 12:05:25;;;;;;;;;;;;;;;31.84;24.58;99274.44;4346389;33;34818;-89
2022/07/07 12:07:56;;;;;;;;;;;;;;;31.87;25.20;99270.72;4356823;32;35220;-86
2022/07/07 12:10:31;;;;;;;;;;;;;;;31.47;26.02;99258.34;4344980;33;34347;-87
2022/07/07 12:12:59;;;;;;;;;;;;;;;31.45;25.15;99265.66;4353783;32;34718;-86
2022/07/07 12:15:27;;;;;;;;;;;;;;;29.74;27.16;99262.06;4339138;33;35289;-89
2022/07/07 12:17:55;;;;;;;;;;;;;;;30.97;25.82;99260.06;4357291;32;35145;-87
2022/07/07 12:20:22;;;;;;;;;;;;;;;31.21;25.78;99252.13;4346299;33;33763;-88
2022/07/07 12:22:50;;;;;;;;;;;;;;;31.11;25.95;99244.88;4345944;33;33947;-88
2022/07/07 12:25:17;;;;;;;;;;;;;;;31.77;24.64;99242.81;4344606;33;34991;-88
2022/07/07 12:28:05;;;;;;;;;;;;;;;31.57;25.04;99241.59;4355145;32;34609;-86
2022/07/07 12:30:34;;;;;;;;;;;;;;;31.62;25.48;99239.44;4346179;33;33619;-86
2022/07/07 12:33:01;;;;;;;;;;;;;;;32.22;24.76;99228.69;4346099;33;34362;-88
2022/07/07 12:35:34;;;;;;;;;;;;;;;31.98;24.48;99231.41;4340546;33;34162;-90
2022/07/07 12:38:02;;;;;;;;;;;;;;;32.17;25.94;99230.03;4340897;33;34818;-86
2022/07/07 12:40:30;;;;;;;;;;;;;;;31.81;25.54;99222.84;4341858;33;34170;-89
2022/07/07 12:43:03;;;;;;;;;;;;;;;31.18;25.97;99222.91;4331233;33;35148;-87
2022/07/07 12:45:30;;;;;;;;;;;;;;;31.58;25.51;99221.88;4349188;32;35867;-88
2022/07/07 12:47:57;;;;;;;;;;;;;;;30.48;26.19;99211.75;4345458;33;35215;-86
2022/07/07 12:50:25;;;;;;;;;;;;;;;31.39;25.99;99215.16;4355953;32;33051;-87
2022/07/07 12:52:55;;;;;;;;;;;;;;;32.13;24.44;99212.47;4345521;33;33980;-81
2022/07/07 12:55:22;;;;;;;;;;;;;;;32.52;24.46;99213.09;4344015;33;34132;-87
2022/07/07 12:57:57;;;;;;;;;;;;;;;31.95;24.74;99210.19;4338590;33;35309;-84